sensor_id;sensor_type;location;lat;lon;timestamp;P1;durP1;ratioP1;P2;durP2;ratioP2
21733;SDS011;11029;47.820;10.534;2022-11-04T00:01:28;0.75;;;0.70;;
21733;SDS011;11029;47.820;10.534;2022-11-04T00:03:55;1.58;;;0.90;;
21733;SDS011;11029;47.820;10.534;2022-11-04T00:06:22;1.00;;;0.82;;
21733;SDS011;11029;47.820;10.534;2022-11-04T00:08:50;0.70;;;0.70;;
21733;SDS011;11029;47.820;10.534;2022-11-04T00:11:18;0.90;;;0.68;;
21733;SDS011;11029;47.820;10.534;2022-11-04T00:14:05;2.42;;;0.73;;
21733;SDS011;11029;47.820;10.534;2022-11-04T00:16:33;0.70;;;0.68;;
21733;SDS011;11029;47.820;10.534;2022-11-04T00:19:19;2.72;;;0.70;;
21733;SDS011;11029;47.820;10.534;2022-11-04T00:21:45;1.05;;;0.60;;
21733;SDS011;11029;47.820;10.534;2022-11-04T00:24:30;0.52;;;0.52;;
21733;SDS011;11029;47.820;10.534;2022-11-04T00:27:17;0.70;;;0.70;;
21733;SDS011;11029;47.820;10.534;2022-11-04T00:30:05;1.13;;;0.70;;
21733;SDS011;11029;47.820;10.534;2022-11-04T00:32:35;0.98;;;0.73;;
21733;SDS011;11029;47.820;10.534;2022-11-04T00:35:20;0.65;;;0.57;;
21733;SDS011;11029;47.820;10.534;2022-11-04T00:37:48;1.13;;;0.68;;
21733;SDS011;11029;47.820;10.534;2022-11-04T00:40:14;1.00;;;0.88;;
21733;SDS011;11029;47.820;10.534;2022-11-04T00:42:42;0.80;;;0.70;;
21733;SDS011;11029;47.820;10.534;2022-11-04T00:45:10;0.70;;;0.55;;
21733;SDS011;11029;47.820;10.534;2022-11-04T00:47:37;2.40;;;0.90;;
21733;SDS011;11029;47.820;10.534;2022-11-04T00:50:04;0.70;;;0.65;;
21733;SDS011;11029;47.820;10.534;2022-11-04T00:52:31;0.73;;;0.50;;
21733;SDS011;11029;47.820;10.534;2022-11-04T00:54:58;0.90;;;0.60;;
21733;SDS011;11029;47.820;10.534;2022-11-04T00:57:25;0.50;;;0.50;;
21733;SDS011;11029;47.820;10.534;2022-11-04T00:59:52;0.70;;;0.60;;
21733;SDS011;11029;47.820;10.534;2022-11-04T01:02:18;0.60;;;0.60;;
21733;SDS011;11029;47.820;10.534;2022-11-04T01:04:45;0.68;;;0.63;;
21733;SDS011;11029;47.820;10.534;2022-11-04T01:07:13;0.70;;;0.40;;
21733;SDS011;11029;47.820;10.534;2022-11-04T01:09:39;0.55;;;0.47;;
21733;SDS011;11029;47.820;10.534;2022-11-04T01:12:06;1.73;;;0.47;;
21733;SDS011;11029;47.820;10.534;2022-11-04T01:14:33;0.63;;;0.50;;
21733;SDS011;11029;47.820;10.534;2022-11-04T01:16:59;1.50;;;0.50;;
21733;SDS011;11029;47.820;10.534;2022-11-04T01:19:26;0.65;;;0.57;;
21733;SDS011;11029;47.820;10.534;2022-11-04T01:21:53;0.50;;;0.50;;
21733;SDS011;11029;47.820;10.534;2022-11-04T01:24:19;1.45;;;0.38;;
21733;SDS011;11029;47.820;10.534;2022-11-04T01:26:46;0.50;;;0.50;;
21733;SDS011;11029;47.820;10.534;2022-11-04T01:29:13;0.90;;;0.38;;
21733;SDS011;11029;47.820;10.534;2022-11-04T01:31:40;0.70;;;0.40;;
21733;SDS011;11029;47.820;10.534;2022-11-04T01:34:07;0.43;;;0.30;;
21733;SDS011;11029;47.820;10.534;2022-11-04T01:36:34;0.70;;;0.38;;
21733;SDS011;11029;47.820;10.534;2022-11-04T01:39:01;1.27;;;0.40;;
21733;SDS011;11029;47.820;10.534;2022-11-04T01:41:29;0.30;;;0.30;;
21733;SDS011;11029;47.820;10.534;2022-11-04T01:44:01;0.30;;;0.30;;
21733;SDS011;11029;47.820;10.534;2022-11-04T01:46:45;0.65;;;0.40;;
21733;SDS011;11029;47.820;10.534;2022-11-04T01:49:25;0.35;;;0.30;;
21733;SDS011;11029;47.820;10.534;2022-11-04T01:52:00;0.55;;;0.40;;
21733;SDS011;11029;47.820;10.534;2022-11-04T01:54:29;0.30;;;0.30;;
21733;SDS011;11029;47.820;10.534;2022-11-04T01:56:57;0.30;;;0.30;;
21733;SDS011;11029;47.820;10.534;2022-11-04T01:59:29;0.30;;;0.20;;
21733;SDS011;11029;47.820;10.534;2022-11-04T02:02:00;0.68;;;0.30;;
21733;SDS011;11029;47.820;10.534;2022-11-04T02:04:28;0.43;;;0.32;;
21733;SDS011;11029;47.820;10.534;2022-11-04T02:07:01;1.10;;;0.30;;
21733;SDS011;11029;47.820;10.534;2022-11-04T02:09:30;0.40;;;0.30;;
21733;SDS011;11029;47.820;10.534;2022-11-04T02:11:59;0.70;;;0.40;;
21733;SDS011;11029;47.820;10.534;2022-11-04T02:14:45;0.32;;;0.30;;
21733;SDS011;11029;47.820;10.534;2022-11-04T02:17:18;0.30;;;0.30;;
21733;SDS011;11029;47.820;10.534;2022-11-04T02:20:10;0.40;;;0.40;;
21733;SDS011;11029;47.820;10.534;2022-11-04T02:31:45;0.40;;;0.38;;
21733;SDS011;11029;47.820;10.534;2022-11-04T02:37:39;0.80;;;0.40;;
21733;SDS011;11029;47.820;10.534;2022-11-04T02:40:29;0.50;;;0.38;;
21733;SDS011;11029;47.820;10.534;2022-11-04T02:45:55;0.38;;;0.30;;
21733;SDS011;11029;47.820;10.534;2022-11-04T02:48:38;0.75;;;0.30;;
21733;SDS011;11029;47.820;10.534;2022-11-04T02:51:14;0.43;;;0.43;;
21733;SDS011;11029;47.820;10.534;2022-11-04T02:54:08;0.40;;;0.30;;
21733;SDS011;11029;47.820;10.534;2022-11-04T02:56:43;0.30;;;0.30;;
21733;SDS011;11029;47.820;10.534;2022-11-04T03:02:27;0.25;;;0.20;;
21733;SDS011;11029;47.820;10.534;2022-11-04T03:04:59;0.85;;;0.30;;
21733;SDS011;11029;47.820;10.534;2022-11-04T03:07:30;0.52;;;0.30;;
21733;SDS011;11029;47.820;10.534;2022-11-04T03:10:03;1.48;;;0.40;;
21733;SDS011;11029;47.820;10.534;2022-11-04T03:12:36;0.30;;;0.30;;
21733;SDS011;11029;47.820;10.534;2022-11-04T03:15:16;0.45;;;0.20;;
21733;SDS011;11029;47.820;10.534;2022-11-04T03:17:57;0.30;;;0.28;;
21733;SDS011;11029;47.820;10.534;2022-11-04T03:20:34;0.40;;;0.40;;
21733;SDS011;11029;47.820;10.534;2022-11-04T03:23:03;0.77;;;0.40;;
21733;SDS011;11029;47.820;10.534;2022-11-04T03:25:35;0.47;;;0.47;;
21733;SDS011;11029;47.820;10.534;2022-11-04T03:28:12;0.63;;;0.38;;
21733;SDS011;11029;47.820;10.534;2022-11-04T03:30:50;0.75;;;0.10;;
21733;SDS011;11029;47.820;10.534;2022-11-04T03:33:23;0.25;;;0.25;;
21733;SDS011;11029;47.820;10.534;2022-11-04T03:35:57;0.45;;;0.30;;
21733;SDS011;11029;47.820;10.534;2022-11-04T03:38:23;0.20;;;0.10;;
21733;SDS011;11029;47.820;10.534;2022-11-04T03:40:50;0.20;;;0.20;;
21733;SDS011;11029;47.820;10.534;2022-11-04T03:43:21;0.20;;;0.20;;
21733;SDS011;11029;47.820;10.534;2022-11-04T03:45:51;0.17;;;0.17;;
21733;SDS011;11029;47.820;10.534;2022-11-04T03:48:18;0.30;;;0.30;;
21733;SDS011;11029;47.820;10.534;2022-11-04T03:50:46;0.90;;;0.30;;
21733;SDS011;11029;47.820;10.534;2022-11-04T03:53:15;0.30;;;0.30;;
21733;SDS011;11029;47.820;10.534;2022-11-04T03:55:57;0.45;;;0.32;;
21733;SDS011;11029;47.820;10.534;2022-11-04T04:01:27;0.20;;;0.20;;
21733;SDS011;11029;47.820;10.534;2022-11-04T04:04:19;0.38;;;0.30;;
21733;SDS011;11029;47.820;10.534;2022-11-04T04:07:14;0.22;;;0.20;;
21733;SDS011;11029;47.820;10.534;2022-11-04T04:09:53;0.30;;;0.30;;
21733;SDS011;11029;47.820;10.534;2022-11-04T04:12:35;0.40;;;0.25;;
21733;SDS011;11029;47.820;10.534;2022-11-04T04:15:19;0.20;;;0.20;;
21733;SDS011;11029;47.820;10.534;2022-11-04T04:17:53;1.00;;;0.30;;
21733;SDS011;11029;47.820;10.534;2022-11-04T04:20:27;0.40;;;0.30;;
21733;SDS011;11029;47.820;10.534;2022-11-04T04:23:00;1.02;;;0.40;;
21733;SDS011;11029;47.820;10.534;2022-11-04T04:25:51;1.20;;;0.32;;
21733;SDS011;11029;47.820;10.534;2022-11-04T04:28:38;0.30;;;0.30;;
21733;SDS011;11029;47.820;10.534;2022-11-04T04:31:07;0.25;;;0.22;;
21733;SDS011;11029;47.820;10.534;2022-11-04T04:33:38;0.40;;;0.30;;
21733;SDS011;11029;47.820;10.534;2022-11-04T04:36:05;0.40;;;0.32;;
21733;SDS011;11029;47.820;10.534;2022-11-04T04:38:34;0.45;;;0.40;;
21733;SDS011;11029;47.820;10.534;2022-11-04T04:41:28;0.30;;;0.30;;
21733;SDS011;11029;47.820;10.534;2022-11-04T04:44:23;1.77;;;0.30;;
21733;SDS011;11029;47.820;10.534;2022-11-04T04:47:11;0.30;;;0.30;;
21733;SDS011;11029;47.820;10.534;2022-11-04T04:49:54;0.25;;;0.25;;
21733;SDS011;11029;47.820;10.534;2022-11-04T04:52:23;0.60;;;0.40;;
21733;SDS011;11029;47.820;10.534;2022-11-04T04:54:52;0.60;;;0.38;;
21733;SDS011;11029;47.820;10.534;2022-11-04T04:57:19;0.45;;;0.35;;
21733;SDS011;11029;47.820;10.534;2022-11-04T04:59:46;0.75;;;0.45;;
21733;SDS011;11029;47.820;10.534;2022-11-04T05:02:12;0.93;;;0.40;;
21733;SDS011;11029;47.820;10.534;2022-11-04T05:04:40;0.57;;;0.40;;
21733;SDS011;11029;47.820;10.534;2022-11-04T05:07:07;0.40;;;0.40;;
21733;SDS011;11029;47.820;10.534;2022-11-04T05:09:35;0.45;;;0.40;;
21733;SDS011;11029;47.820;10.534;2022-11-04T05:12:02;0.20;;;0.20;;
21733;SDS011;11029;47.820;10.534;2022-11-04T05:14:29;0.43;;;0.32;;
21733;SDS011;11029;47.820;10.534;2022-11-04T05:16:56;0.30;;;0.30;;
21733;SDS011;11029;47.820;10.534;2022-11-04T05:19:23;0.40;;;0.40;;
21733;SDS011;11029;47.820;10.534;2022-11-04T05:21:49;0.70;;;0.35;;
21733;SDS011;11029;47.820;10.534;2022-11-04T05:24:16;0.63;;;0.47;;
21733;SDS011;11029;47.820;10.534;2022-11-04T05:26:43;0.40;;;0.40;;
21733;SDS011;11029;47.820;10.534;2022-11-04T05:29:09;0.40;;;0.40;;
21733;SDS011;11029;47.820;10.534;2022-11-04T05:31:37;0.50;;;0.40;;
21733;SDS011;11029;47.820;10.534;2022-11-04T05:34:04;0.50;;;0.50;;
21733;SDS011;11029;47.820;10.534;2022-11-04T05:36:31;1.27;;;0.40;;
21733;SDS011;11029;47.820;10.534;2022-11-04T05:38:58;0.52;;;0.40;;
21733;SDS011;11029;47.820;10.534;2022-11-04T05:41:25;0.30;;;0.30;;
21733;SDS011;11029;47.820;10.534;2022-11-04T05:43:55;0.50;;;0.50;;
21733;SDS011;11029;47.820;10.534;2022-11-04T05:46:24;1.77;;;1.00;;
21733;SDS011;11029;47.820;10.534;2022-11-04T05:48:51;1.48;;;0.90;;
21733;SDS011;11029;47.820;10.534;2022-11-04T05:51:19;1.15;;;0.68;;
21733;SDS011;11029;47.820;10.534;2022-11-04T05:53:48;1.30;;;1.02;;
21733;SDS011;11029;47.820;10.534;2022-11-04T05:56:15;3.17;;;2.47;;
21733;SDS011;11029;47.820;10.534;2022-11-04T05:58:42;1.88;;;1.60;;
21733;SDS011;11029;47.820;10.534;2022-11-04T06:03:53;0.70;;;0.60;;
21733;SDS011;11029;47.820;10.534;2022-11-04T06:06:21;0.50;;;0.50;;
21733;SDS011;11029;47.820;10.534;2022-11-04T06:08:49;0.40;;;0.30;;
21733;SDS011;11029;47.820;10.534;2022-11-04T06:11:16;0.40;;;0.40;;
21733;SDS011;11029;47.820;10.534;2022-11-04T06:13:44;0.45;;;0.40;;
21733;SDS011;11029;47.820;10.534;2022-11-04T06:16:10;1.13;;;0.30;;
21733;SDS011;11029;47.820;10.534;2022-11-04T06:18:37;0.82;;;0.52;;
21733;SDS011;11029;47.820;10.534;2022-11-04T06:23:40;0.63;;;0.40;;
21733;SDS011;11029;47.820;10.534;2022-11-04T06:26:08;0.52;;;0.40;;
21733;SDS011;11029;47.820;10.534;2022-11-04T06:28:35;0.80;;;0.60;;
21733;SDS011;11029;47.820;10.534;2022-11-04T06:31:03;0.60;;;0.50;;
21733;SDS011;11029;47.820;10.534;2022-11-04T06:33:31;1.77;;;0.43;;
21733;SDS011;11029;47.820;10.534;2022-11-04T06:36:03;1.75;;;1.00;;
21733;SDS011;11029;47.820;10.534;2022-11-04T06:38:31;0.85;;;0.80;;
21733;SDS011;11029;47.820;10.534;2022-11-04T06:40:59;0.80;;;0.77;;
21733;SDS011;11029;47.820;10.534;2022-11-04T06:43:26;1.75;;;0.60;;
21733;SDS011;11029;47.820;10.534;2022-11-04T06:45:53;0.73;;;0.70;;
21733;SDS011;11029;47.820;10.534;2022-11-04T06:48:21;0.68;;;0.68;;
21733;SDS011;11029;47.820;10.534;2022-11-04T06:50:47;1.13;;;0.75;;
21733;SDS011;11029;47.820;10.534;2022-11-04T06:53:14;0.43;;;0.43;;
21733;SDS011;11029;47.820;10.534;2022-11-04T06:55:41;0.55;;;0.55;;
21733;SDS011;11029;47.820;10.534;2022-11-04T06:58:08;1.35;;;1.00;;
21733;SDS011;11029;47.820;10.534;2022-11-04T07:00:35;3.30;;;1.73;;
21733;SDS011;11029;47.820;10.534;2022-11-04T07:03:02;5.75;;;2.63;;
21733;SDS011;11029;47.820;10.534;2022-11-04T07:05:31;2.88;;;1.95;;
21733;SDS011;11029;47.820;10.534;2022-11-04T07:07:58;2.25;;;1.55;;
21733;SDS011;11029;47.820;10.534;2022-11-04T07:10:25;1.65;;;1.10;;
21733;SDS011;11029;47.820;10.534;2022-11-04T07:12:51;0.60;;;0.60;;
21733;SDS011;11029;47.820;10.534;2022-11-04T07:15:20;0.80;;;0.75;;
21733;SDS011;11029;47.820;10.534;2022-11-04T07:17:52;1.58;;;1.40;;
21733;SDS011;11029;47.820;10.534;2022-11-04T07:20:19;1.50;;;1.38;;
21733;SDS011;11029;47.820;10.534;2022-11-04T07:22:46;1.20;;;0.68;;
21733;SDS011;11029;47.820;10.534;2022-11-04T07:25:12;1.38;;;1.00;;
21733;SDS011;11029;47.820;10.534;2022-11-04T07:27:39;1.80;;;1.40;;
21733;SDS011;11029;47.820;10.534;2022-11-04T07:30:06;1.20;;;0.88;;
21733;SDS011;11029;47.820;10.534;2022-11-04T07:32:33;1.85;;;0.93;;
21733;SDS011;11029;47.820;10.534;2022-11-04T07:35:00;1.50;;;1.08;;
21733;SDS011;11029;47.820;10.534;2022-11-04T07:37:27;2.47;;;1.30;;
21733;SDS011;11029;47.820;10.534;2022-11-04T07:39:53;1.17;;;0.70;;
21733;SDS011;11029;47.820;10.534;2022-11-04T07:42:20;0.40;;;0.40;;
21733;SDS011;11029;47.820;10.534;2022-11-04T07:44:52;0.50;;;0.50;;
21733;SDS011;11029;47.820;10.534;2022-11-04T07:47:19;0.60;;;0.50;;
21733;SDS011;11029;47.820;10.534;2022-11-04T07:49:45;2.28;;;0.50;;
21733;SDS011;11029;47.820;10.534;2022-11-04T07:52:13;0.60;;;0.55;;
21733;SDS011;11029;47.820;10.534;2022-11-04T07:54:39;0.50;;;0.50;;
21733;SDS011;11029;47.820;10.534;2022-11-04T07:57:06;0.73;;;0.50;;
21733;SDS011;11029;47.820;10.534;2022-11-04T07:59:33;0.90;;;0.60;;
21733;SDS011;11029;47.820;10.534;2022-11-04T08:02:00;0.75;;;0.60;;
21733;SDS011;11029;47.820;10.534;2022-11-04T08:04:27;3.15;;;2.60;;
21733;SDS011;11029;47.820;10.534;2022-11-04T08:06:54;3.50;;;1.88;;
21733;SDS011;11029;47.820;10.534;2022-11-04T08:09:20;1.50;;;1.40;;
21733;SDS011;11029;47.820;10.534;2022-11-04T08:11:48;1.60;;;1.33;;
21733;SDS011;11029;47.820;10.534;2022-11-04T08:14:15;1.45;;;1.20;;
21733;SDS011;11029;47.820;10.534;2022-11-04T08:16:42;0.50;;;0.50;;
21733;SDS011;11029;47.820;10.534;2022-11-04T08:19:08;0.40;;;0.40;;
21733;SDS011;11029;47.820;10.534;2022-11-04T08:21:35;0.57;;;0.50;;
21733;SDS011;11029;47.820;10.534;2022-11-04T08:24:02;0.30;;;0.30;;
21733;SDS011;11029;47.820;10.534;2022-11-04T08:26:29;1.40;;;0.90;;
21733;SDS011;11029;47.820;10.534;2022-11-04T08:28:57;3.88;;;1.10;;
21733;SDS011;11029;47.820;10.534;2022-11-04T08:31:25;2.67;;;1.10;;
21733;SDS011;11029;47.820;10.534;2022-11-04T08:33:54;0.65;;;0.50;;
21733;SDS011;11029;47.820;10.534;2022-11-04T08:36:28;0.52;;;0.45;;
21733;SDS011;11029;47.820;10.534;2022-11-04T08:38:57;4.57;;;2.17;;
21733;SDS011;11029;47.820;10.534;2022-11-04T08:41:26;3.30;;;2.97;;
21733;SDS011;11029;47.820;10.534;2022-11-04T08:43:55;5.07;;;4.22;;
21733;SDS011;11029;47.820;10.534;2022-11-04T08:46:26;2.97;;;2.67;;
21733;SDS011;11029;47.820;10.534;2022-11-04T08:48:54;7.15;;;4.13;;
21733;SDS011;11029;47.820;10.534;2022-11-04T08:51:22;1.23;;;1.13;;
21733;SDS011;11029;47.820;10.534;2022-11-04T08:53:50;1.45;;;0.63;;
21733;SDS011;11029;47.820;10.534;2022-11-04T08:56:27;1.80;;;1.02;;
21733;SDS011;11029;47.820;10.534;2022-11-04T08:58:56;1.00;;;0.77;;
21733;SDS011;11029;47.820;10.534;2022-11-04T09:01:24;0.80;;;0.52;;
21733;SDS011;11029;47.820;10.534;2022-11-04T09:03:59;0.90;;;0.80;;
21733;SDS011;11029;47.820;10.534;2022-11-04T09:06:28;3.88;;;2.47;;
21733;SDS011;11029;47.820;10.534;2022-11-04T09:08:57;1.42;;;1.20;;
21733;SDS011;11029;47.820;10.534;2022-11-04T09:11:32;2.35;;;1.77;;
21733;SDS011;11029;47.820;10.534;2022-11-04T09:14:02;2.22;;;1.33;;
21733;SDS011;11029;47.820;10.534;2022-11-04T09:16:29;2.28;;;0.73;;
21733;SDS011;11029;47.820;10.534;2022-11-04T09:18:57;2.05;;;0.90;;
21733;SDS011;11029;47.820;10.534;2022-11-04T09:21:25;1.58;;;0.70;;
21733;SDS011;11029;47.820;10.534;2022-11-04T09:23:52;1.25;;;0.82;;
21733;SDS011;11029;47.820;10.534;2022-11-04T09:26:19;1.80;;;1.40;;
21733;SDS011;11029;47.820;10.534;2022-11-04T09:28:51;1.60;;;1.50;;
21733;SDS011;11029;47.820;10.534;2022-11-04T09:31:23;1.33;;;1.23;;
21733;SDS011;11029;47.820;10.534;2022-11-04T09:33:52;1.02;;;0.93;;
21733;SDS011;11029;47.820;10.534;2022-11-04T09:36:19;0.65;;;0.50;;
21733;SDS011;11029;47.820;10.534;2022-11-04T09:38:46;0.60;;;0.60;;
21733;SDS011;11029;47.820;10.534;2022-11-04T09:46:46;3.70;;;3.20;;
21733;SDS011;11029;47.820;10.534;2022-11-04T09:49:15;3.20;;;2.60;;
21733;SDS011;11029;47.820;10.534;2022-11-04T09:51:43;6.53;;;4.10;;
21733;SDS011;11029;47.820;10.534;2022-11-04T09:54:22;4.57;;;2.85;;
21733;SDS011;11029;47.820;10.534;2022-11-04T09:56:52;5.28;;;4.20;;
21733;SDS011;11029;47.820;10.534;2022-11-04T09:59:23;9.63;;;6.32;;
21733;SDS011;11029;47.820;10.534;2022-11-04T10:01:57;9.23;;;6.28;;
21733;SDS011;11029;47.820;10.534;2022-11-04T10:07:34;7.07;;;6.25;;
21733;SDS011;11029;47.820;10.534;2022-11-04T10:10:27;7.53;;;6.63;;
21733;SDS011;11029;47.820;10.534;2022-11-04T10:18:32;2.83;;;2.35;;
21733;SDS011;11029;47.820;10.534;2022-11-04T10:23:39;3.63;;;2.55;;
21733;SDS011;11029;47.820;10.534;2022-11-04T10:26:45;19.60;;;9.40;;
21733;SDS011;11029;47.820;10.534;2022-11-04T10:29:28;0.80;;;0.80;;
21733;SDS011;11029;47.820;10.534;2022-11-04T10:32:16;1.75;;;1.63;;
21733;SDS011;11029;47.820;10.534;2022-11-04T10:34:50;2.38;;;2.03;;
21733;SDS011;11029;47.820;10.534;2022-11-04T10:37:24;3.90;;;2.80;;
21733;SDS011;11029;47.820;10.534;2022-11-04T10:42:52;2.30;;;2.10;;
21733;SDS011;11029;47.820;10.534;2022-11-04T10:45:19;0.98;;;0.95;;
21733;SDS011;11029;47.820;10.534;2022-11-04T10:50:38;1.30;;;1.20;;
21733;SDS011;11029;47.820;10.534;2022-11-04T10:53:24;1.88;;;1.48;;
21733;SDS011;11029;47.820;10.534;2022-11-04T10:58:31;2.70;;;1.40;;
21733;SDS011;11029;47.820;10.534;2022-11-04T11:01:20;2.38;;;1.50;;
21733;SDS011;11029;47.820;10.534;2022-11-04T11:03:47;4.85;;;1.50;;
21733;SDS011;11029;47.820;10.534;2022-11-04T11:11:44;3.13;;;1.80;;
21733;SDS011;11029;47.820;10.534;2022-11-04T11:16:56;3.13;;;1.58;;
21733;SDS011;11029;47.820;10.534;2022-11-04T11:22:37;0.98;;;0.90;;
21733;SDS011;11029;47.820;10.534;2022-11-04T11:30:30;3.22;;;1.67;;
21733;SDS011;11029;47.820;10.534;2022-11-04T11:33:34;2.50;;;1.75;;
21733;SDS011;11029;47.820;10.534;2022-11-04T11:36:05;1.23;;;0.90;;
21733;SDS011;11029;47.820;10.534;2022-11-04T11:39:42;4.50;;;2.50;;
21733;SDS011;11029;47.820;10.534;2022-11-04T11:44:24;2.15;;;1.48;;
21733;SDS011;11029;47.820;10.534;2022-11-04T11:47:03;1.10;;;0.90;;
21733;SDS011;11029;47.820;10.534;2022-11-04T11:49:35;3.13;;;1.60;;
21733;SDS011;11029;47.820;10.534;2022-11-04T11:52:20;1.70;;;1.60;;
21733;SDS011;11029;47.820;10.534;2022-11-04T12:01:07;3.67;;;3.30;;
21733;SDS011;11029;47.820;10.534;2022-11-04T12:03:50;1.35;;;1.20;;
21733;SDS011;11029;47.820;10.534;2022-11-04T12:09:54;8.90;;;6.63;;
21733;SDS011;11029;47.820;10.534;2022-11-04T12:13:13;3.03;;;1.55;;
21733;SDS011;11029;47.820;10.534;2022-11-04T12:16:12;8.10;;;3.88;;
21733;SDS011;11029;47.820;10.534;2022-11-04T12:21:34;6.68;;;3.90;;
21733;SDS011;11029;47.820;10.534;2022-11-04T12:24:37;15.38;;;8.43;;
21733;SDS011;11029;47.820;10.534;2022-11-04T12:27:36;20.88;;;11.55;;
21733;SDS011;11029;47.820;10.534;2022-11-04T12:30:20;5.07;;;2.00;;
21733;SDS011;11029;47.820;10.534;2022-11-04T12:33:02;2.75;;;1.10;;
21733;SDS011;11029;47.820;10.534;2022-11-04T12:41:16;1.67;;;1.45;;
21733;SDS011;11029;47.820;10.534;2022-11-04T12:58:21;1.73;;;0.93;;
21733;SDS011;11029;47.820;10.534;2022-11-04T13:01:22;2.40;;;1.83;;
21733;SDS011;11029;47.820;10.534;2022-11-04T13:04:16;5.78;;;3.10;;
21733;SDS011;11029;47.820;10.534;2022-11-04T13:06:50;1.20;;;1.02;;
21733;SDS011;11029;47.820;10.534;2022-11-04T13:09:29;18.75;;;11.02;;
21733;SDS011;11029;47.820;10.534;2022-11-04T13:12:07;32.38;;;19.50;;
21733;SDS011;11029;47.820;10.534;2022-11-04T13:14:59;7.70;;;5.18;;
21733;SDS011;11029;47.820;10.534;2022-11-04T13:17:29;3.58;;;2.17;;
21733;SDS011;11029;47.820;10.534;2022-11-04T13:25:18;7.25;;;3.08;;
21733;SDS011;11029;47.820;10.534;2022-11-04T13:27:48;21.45;;;12.80;;
21733;SDS011;11029;47.820;10.534;2022-11-04T13:38:39;6.07;;;3.55;;
21733;SDS011;11029;47.820;10.534;2022-11-04T13:44:00;2.63;;;2.42;;
21733;SDS011;11029;47.820;10.534;2022-11-04T13:46:32;2.00;;;1.20;;
21733;SDS011;11029;47.820;10.534;2022-11-04T13:52:10;1.70;;;1.48;;
21733;SDS011;11029;47.820;10.534;2022-11-04T13:55:01;3.00;;;2.00;;
21733;SDS011;11029;47.820;10.534;2022-11-04T13:57:32;3.35;;;2.00;;
21733;SDS011;11029;47.820;10.534;2022-11-04T14:00:25;1.20;;;1.10;;
21733;SDS011;11029;47.820;10.534;2022-11-04T14:02:53;2.47;;;2.00;;
21733;SDS011;11029;47.820;10.534;2022-11-04T14:16:01;2.20;;;1.25;;
21733;SDS011;11029;47.820;10.534;2022-11-04T14:18:30;2.67;;;2.08;;
21733;SDS011;11029;47.820;10.534;2022-11-04T14:21:05;5.20;;;2.58;;
21733;SDS011;11029;47.820;10.534;2022-11-04T14:23:32;2.08;;;1.48;;
21733;SDS011;11029;47.820;10.534;2022-11-04T14:26:00;2.75;;;2.00;;
21733;SDS011;11029;47.820;10.534;2022-11-04T14:28:30;3.08;;;1.60;;
21733;SDS011;11029;47.820;10.534;2022-11-04T14:31:02;1.95;;;1.60;;
21733;SDS011;11029;47.820;10.534;2022-11-04T14:49:34;3.13;;;2.40;;
21733;SDS011;11029;47.820;10.534;2022-11-04T14:52:16;3.95;;;2.30;;
21733;SDS011;11029;47.820;10.534;2022-11-04T14:55:01;2.72;;;1.85;;
21733;SDS011;11029;47.820;10.534;2022-11-04T14:57:48;1.52;;;1.33;;
21733;SDS011;11029;47.820;10.534;2022-11-04T15:00:23;2.25;;;1.42;;
21733;SDS011;11029;47.820;10.534;2022-11-04T15:05:57;1.20;;;1.10;;
21733;SDS011;11029;47.820;10.534;2022-11-04T15:08:27;1.88;;;1.13;;
21733;SDS011;11029;47.820;10.534;2022-11-04T15:11:02;1.13;;;1.00;;
21733;SDS011;11029;47.820;10.534;2022-11-04T15:13:32;1.77;;;0.80;;
21733;SDS011;11029;47.820;10.534;2022-11-04T15:16:05;1.83;;;1.35;;
21733;SDS011;11029;47.820;10.534;2022-11-04T15:18:36;1.50;;;1.30;;
21733;SDS011;11029;47.820;10.534;2022-11-04T15:21:05;1.67;;;1.55;;
21733;SDS011;11029;47.820;10.534;2022-11-04T15:23:38;1.17;;;1.08;;
21733;SDS011;11029;47.820;10.534;2022-11-04T15:26:17;1.02;;;0.93;;
21733;SDS011;11029;47.820;10.534;2022-11-04T15:28:55;1.48;;;0.93;;
21733;SDS011;11029;47.820;10.534;2022-11-04T15:31:24;0.80;;;0.70;;
21733;SDS011;11029;47.820;10.534;2022-11-04T15:33:53;1.00;;;0.90;;
21733;SDS011;11029;47.820;10.534;2022-11-04T15:36:25;1.23;;;1.13;;
21733;SDS011;11029;47.820;10.534;2022-11-04T15:38:58;1.33;;;0.82;;
21733;SDS011;11029;47.820;10.534;2022-11-04T15:41:28;1.35;;;1.02;;
21733;SDS011;11029;47.820;10.534;2022-11-04T15:44:16;1.63;;;1.10;;
21733;SDS011;11029;47.820;10.534;2022-11-04T15:46:49;1.90;;;1.50;;
21733;SDS011;11029;47.820;10.534;2022-11-04T15:49:22;1.35;;;1.20;;
21733;SDS011;11029;47.820;10.534;2022-11-04T15:51:52;2.35;;;1.27;;
21733;SDS011;11029;47.820;10.534;2022-11-04T15:54:32;2.28;;;1.92;;
21733;SDS011;11029;47.820;10.534;2022-11-04T15:57:10;4.00;;;2.05;;
21733;SDS011;11029;47.820;10.534;2022-11-04T15:59:54;4.22;;;3.20;;
21733;SDS011;11029;47.820;10.534;2022-11-04T16:02:27;5.95;;;2.72;;
21733;SDS011;11029;47.820;10.534;2022-11-04T16:05:04;2.30;;;1.80;;
21733;SDS011;11029;47.820;10.534;2022-11-04T16:07:34;2.30;;;1.20;;
21733;SDS011;11029;47.820;10.534;2022-11-04T16:10:20;7.68;;;2.70;;
21733;SDS011;11029;47.820;10.534;2022-11-04T16:12:48;7.72;;;3.47;;
21733;SDS011;11029;47.820;10.534;2022-11-04T16:21:42;9.07;;;4.53;;
21733;SDS011;11029;47.820;10.534;2022-11-04T16:23:59;8.40;;;2.50;;
21733;SDS011;11029;47.820;10.534;2022-11-04T16:26:29;4.38;;;2.30;;
21733;SDS011;11029;47.820;10.534;2022-11-04T16:29:06;3.13;;;1.90;;
21733;SDS011;11029;47.820;10.534;2022-11-04T16:31:35;5.50;;;2.70;;
21733;SDS011;11029;47.820;10.534;2022-11-04T16:34:03;7.32;;;3.95;;
21733;SDS011;11029;47.820;10.534;2022-11-04T16:36:34;11.60;;;5.07;;
21733;SDS011;11029;47.820;10.534;2022-11-04T16:39:02;11.52;;;7.25;;
21733;SDS011;11029;47.820;10.534;2022-11-04T16:41:37;9.25;;;6.60;;
21733;SDS011;11029;47.820;10.534;2022-11-04T16:44:05;6.60;;;4.40;;
21733;SDS011;11029;47.820;10.534;2022-11-04T16:46:43;11.57;;;7.88;;
21733;SDS011;11029;47.820;10.534;2022-11-04T16:49:14;19.02;;;11.90;;
21733;SDS011;11029;47.820;10.534;2022-11-04T16:51:42;18.50;;;11.23;;
21733;SDS011;11029;47.820;10.534;2022-11-04T16:54:09;20.02;;;10.85;;
21733;SDS011;11029;47.820;10.534;2022-11-04T16:56:36;19.25;;;10.02;;
21733;SDS011;11029;47.820;10.534;2022-11-04T16:59:04;13.55;;;8.60;;
21733;SDS011;11029;47.820;10.534;2022-11-04T17:01:30;19.50;;;9.77;;
21733;SDS011;11029;47.820;10.534;2022-11-04T17:03:57;7.82;;;5.13;;
21733;SDS011;11029;47.820;10.534;2022-11-04T17:06:24;7.25;;;4.47;;
21733;SDS011;11029;47.820;10.534;2022-11-04T17:08:51;7.07;;;3.50;;
21733;SDS011;11029;47.820;10.534;2022-11-04T17:11:18;5.28;;;2.65;;
21733;SDS011;11029;47.820;10.534;2022-11-04T17:13:45;8.82;;;4.75;;
21733;SDS011;11029;47.820;10.534;2022-11-04T17:16:12;19.05;;;8.10;;
21733;SDS011;11029;47.820;10.534;2022-11-04T17:18:39;22.95;;;10.00;;
21733;SDS011;11029;47.820;10.534;2022-11-04T17:21:07;25.67;;;11.65;;
21733;SDS011;11029;47.820;10.534;2022-11-04T17:23:37;53.95;;;22.55;;
21733;SDS011;11029;47.820;10.534;2022-11-04T17:26:04;20.67;;;9.32;;
21733;SDS011;11029;47.820;10.534;2022-11-04T17:28:30;7.85;;;4.65;;
21733;SDS011;11029;47.820;10.534;2022-11-04T17:30:58;5.85;;;3.95;;
21733;SDS011;11029;47.820;10.534;2022-11-04T17:33:27;5.82;;;3.70;;
21733;SDS011;11029;47.820;10.534;2022-11-04T17:35:54;9.73;;;5.22;;
21733;SDS011;11029;47.820;10.534;2022-11-04T17:38:21;13.93;;;8.77;;
21733;SDS011;11029;47.820;10.534;2022-11-04T17:40:48;15.02;;;10.13;;
21733;SDS011;11029;47.820;10.534;2022-11-04T17:43:34;15.70;;;9.48;;